createdAt,value
2023-02-13T00:03:05.829Z,22.60
2023-02-13T00:08:32.794Z,20.80
2023-02-13T00:13:59.799Z,20.02
2023-02-13T00:19:33.859Z,21.17
2023-02-13T00:25:00.797Z,20.60
2023-02-13T00:30:28.826Z,19.67
2023-02-13T00:33:09.310Z,21.13
2023-02-13T00:35:55.810Z,19.98
2023-02-13T00:41:23.806Z,18.40
2023-02-13T00:44:10.865Z,22.50
2023-02-13T00:49:37.817Z,20.65
2023-02-13T00:55:04.794Z,20.80
2023-02-13T00:57:45.289Z,20.67
2023-02-13T01:00:31.792Z,21.30
2023-02-13T01:03:12.339Z,20.60
2023-02-13T01:05:59.826Z,20.90
2023-02-13T01:08:54.802Z,21.65
2023-02-13T01:11:41.797Z,17.77
2023-02-13T01:17:08.810Z,20.55
2023-02-13T01:22:35.816Z,20.08
2023-02-13T01:28:02.864Z,19.52
2023-02-13T01:30:49.837Z,20.73
2023-02-13T01:33:30.585Z,22.10
2023-02-13T01:36:14.817Z,21.02
2023-02-13T01:39:01.809Z,20.55
2023-02-13T01:44:57.866Z,17.75
2023-02-13T01:47:46.814Z,20.27
2023-02-13T01:50:51.858Z,17.90
2023-02-13T01:53:44.817Z,20.10
2023-02-13T01:56:53.801Z,19.15
2023-02-13T01:59:51.607Z,18.83
2023-02-13T02:02:40.880Z,20.85
2023-02-13T02:05:32.866Z,23.88
2023-02-13T02:08:16.826Z,19.23
2023-02-13T02:14:17.814Z,20.05
2023-02-13T02:20:06.836Z,21.23
2023-02-13T02:23:09.866Z,18.83
2023-02-13T02:26:33.835Z,20.58
2023-02-13T02:29:39.810Z,21.25
2023-02-13T02:32:33.853Z,19.50
2023-02-13T02:35:57.814Z,26.23
2023-02-13T02:39:03.290Z,19.48
2023-02-13T02:42:09.810Z,20.45
2023-02-13T02:45:02.811Z,18.65
2023-02-13T02:48:43.800Z,19.13
2023-02-13T02:51:50.809Z,21.27
2023-02-13T02:55:02.821Z,20.65
2023-02-13T02:58:27.995Z,18.90
2023-02-13T03:01:53.817Z,24.70
2023-02-13T03:05:05.824Z,20.02
2023-02-13T03:07:52.828Z,18.80
2023-02-13T03:13:49.119Z,21.63
2023-02-13T03:16:56.802Z,19.08
2023-02-13T03:20:05.029Z,20.48
2023-02-13T03:23:17.797Z,20.27
2023-02-13T03:26:50.349Z,20.85
2023-02-13T03:29:58.790Z,19.10
2023-02-13T03:33:15.038Z,21.63
2023-02-13T03:36:25.817Z,19.65
2023-02-13T03:39:24.837Z,20.90
2023-02-13T03:42:14.817Z,20.48
2023-02-13T03:45:55.846Z,23.20
2023-02-13T03:49:05.810Z,20.25
2023-02-13T03:52:03.441Z,21.83
2023-02-13T03:55:22.827Z,20.55
2023-02-13T03:58:45.038Z,21.65
2023-02-13T04:01:35.820Z,19.70
2023-02-13T04:04:25.159Z,21.13
2023-02-13T04:07:15.806Z,21.50
2023-02-13T04:10:19.788Z,20.48
2023-02-13T04:13:27.805Z,18.65
2023-02-13T04:16:24.832Z,20.02
2023-02-13T04:19:07.604Z,21.95
2023-02-13T04:21:53.803Z,20.55
2023-02-13T04:27:22.858Z,21.23
2023-02-13T04:30:09.827Z,19.08
2023-02-13T04:35:36.809Z,18.52
2023-02-13T04:41:03.836Z,21.38
2023-02-13T04:46:30.816Z,22.77
2023-02-13T04:51:57.814Z,22.38
2023-02-13T04:57:24.825Z,18.90
2023-02-13T05:00:04.972Z,23.58
2023-02-13T05:02:51.831Z,22.33
2023-02-13T05:05:31.908Z,18.90
2023-02-13T05:08:18.808Z,22.90
2023-02-13T05:11:05.882Z,20.35
2023-02-13T05:16:26.311Z,20.92
2023-02-13T05:19:13.173Z,21.77
2023-02-13T05:22:11.821Z,22.63
2023-02-13T05:24:58.832Z,22.08
2023-02-13T05:27:45.866Z,22.27
2023-02-13T05:30:25.850Z,19.85
2023-02-13T05:33:12.814Z,21.27
2023-02-13T05:38:39.809Z,21.00
2023-02-13T05:44:06.823Z,21.35
2023-02-13T05:49:34.834Z,23.95
2023-02-13T05:55:01.829Z,26.73
2023-02-13T06:00:28.813Z,24.85
2023-02-13T06:06:03.876Z,21.90
2023-02-13T06:08:43.816Z,21.40
2023-02-13T06:11:30.862Z,24.73
2023-02-13T06:16:51.339Z,22.15
2023-02-13T06:19:37.821Z,24.02
2023-02-13T06:25:04.809Z,20.55
2023-02-13T06:27:45.345Z,23.70
2023-02-13T06:30:32.857Z,22.38
2023-02-13T06:33:13.314Z,25.45
2023-02-13T06:35:59.815Z,25.48
2023-02-13T06:41:26.899Z,24.30
2023-02-13T06:44:14.822Z,22.08
2023-02-13T06:46:54.945Z,27.15
2023-02-13T06:49:41.821Z,25.27
2023-02-13T06:55:15.927Z,25.73
2023-02-13T07:00:43.912Z,22.65
2023-02-13T07:03:23.873Z,22.08
2023-02-13T07:06:10.834Z,25.67
2023-02-13T07:09:01.822Z,25.00
2023-02-13T07:11:48.826Z,25.40
2023-02-13T07:17:17.814Z,24.10
2023-02-13T07:19:57.909Z,23.05
2023-02-13T07:22:44.819Z,23.50
2023-02-13T07:28:13.902Z,23.27
2023-02-13T07:30:56.312Z,23.10
2023-02-13T07:33:42.836Z,24.75
2023-02-13T07:39:09.838Z,24.23
2023-02-13T07:44:43.810Z,26.63
2023-02-13T07:47:23.896Z,25.35
2023-02-13T07:50:12.821Z,27.33
2023-02-13T07:52:59.944Z,25.13
2023-02-13T07:58:26.899Z,25.48
2023-02-13T08:01:15.840Z,23.35
2023-02-13T08:03:56.960Z,24.95
2023-02-13T08:06:46.837Z,22.42
2023-02-13T08:09:46.467Z,25.02
2023-02-13T08:12:32.837Z,22.90
2023-02-13T08:17:59.842Z,25.48
2023-02-13T08:23:26.910Z,24.70
2023-02-13T08:28:54.323Z,23.23
2023-02-13T08:31:40.856Z,25.33
2023-02-13T08:37:08.862Z,25.38
2023-02-13T08:39:49.337Z,24.20
2023-02-13T08:42:35.819Z,24.75
2023-02-13T08:48:02.823Z,23.48
2023-02-13T08:53:29.831Z,25.13
2023-02-13T08:56:17.032Z,21.75
2023-02-13T08:58:56.841Z,19.63
2023-02-13T09:01:43.908Z,21.48
2023-02-13T09:07:10.859Z,22.52
2023-02-13T09:12:37.850Z,22.52
2023-02-13T09:18:04.839Z,21.92
2023-02-13T09:23:32.842Z,21.23
2023-02-13T09:26:20.959Z,22.40
2023-02-13T09:29:07.821Z,20.83
2023-02-13T09:34:34.849Z,19.83
2023-02-13T09:37:14.905Z,21.17
2023-02-13T09:40:01.833Z,22.92
2023-02-13T09:45:29.389Z,21.10
2023-02-13T09:48:15.830Z,19.55
2023-02-13T09:53:43.562Z,19.15
2023-02-13T09:56:44.852Z,20.35
2023-02-13T09:59:43.850Z,18.52
2023-02-13T10:02:42.518Z,21.50
2023-02-13T10:05:49.839Z,17.63
2023-02-13T10:08:54.859Z,17.08
2023-02-13T10:12:21.845Z,19.48
2023-02-13T10:15:21.863Z,19.60
2023-02-13T10:18:22.926Z,17.67
2023-02-13T10:21:11.824Z,19.48
2023-02-13T10:23:57.880Z,18.25
2023-02-13T10:26:51.833Z,19.33
2023-02-13T10:30:04.175Z,19.02
2023-02-13T10:33:25.833Z,22.30
2023-02-13T10:36:19.842Z,18.90
2023-02-13T10:39:12.900Z,18.25
2023-02-13T10:44:47.906Z,19.25
2023-02-13T10:47:41.862Z,18.65
2023-02-13T10:50:46.872Z,16.92
2023-02-13T10:53:42.940Z,16.80
2023-02-13T10:56:29.830Z,16.20
2023-02-13T10:59:40.870Z,17.88
2023-02-13T11:02:34.836Z,17.73
2023-02-13T11:05:25.842Z,15.70
2023-02-13T11:08:34.330Z,15.73
2023-02-13T11:11:45.827Z,17.50
2023-02-13T11:14:33.843Z,17.13
2023-02-13T11:17:30.851Z,17.02
2023-02-13T11:20:40.855Z,18.25
2023-02-13T11:23:46.850Z,19.35
2023-02-13T11:26:35.027Z,18.63
2023-02-13T11:29:44.850Z,18.98
2023-02-13T11:32:37.832Z,18.83
2023-02-13T11:35:46.890Z,18.92
2023-02-13T11:38:33.856Z,17.55
2023-02-13T11:41:24.904Z,20.05
2023-02-13T11:44:11.834Z,17.88
2023-02-13T11:46:57.960Z,17.40
2023-02-13T11:49:45.855Z,19.65
2023-02-13T11:52:44.875Z,17.63
2023-02-13T11:55:38.859Z,17.95
2023-02-13T11:58:22.022Z,18.63
2023-02-13T12:01:26.876Z,16.75
2023-02-13T12:04:12.002Z,18.35
2023-02-13T12:07:24.884Z,18.13
2023-02-13T12:10:35.842Z,16.90
2023-02-13T12:13:45.876Z,19.20
2023-02-13T12:16:58.863Z,16.48
2023-02-13T12:19:50.855Z,19.40
2023-02-13T12:23:13.897Z,16.05
2023-02-13T12:26:14.870Z,17.25
2023-02-13T12:29:47.863Z,16.92
2023-02-13T12:32:43.036Z,16.95
2023-02-13T12:35:40.840Z,17.15
2023-02-13T12:38:52.913Z,16.30
2023-02-13T12:41:53.860Z,16.75
2023-02-13T12:45:19.867Z,15.40
2023-02-13T12:48:15.861Z,19.67
2023-02-13T12:51:05.913Z,16.05
2023-02-13T12:54:07.866Z,16.45
2023-02-13T12:57:18.878Z,17.08
2023-02-13T13:00:07.923Z,15.25
2023-02-13T13:03:22.847Z,15.82
2023-02-13T13:06:15.918Z,15.63
2023-02-13T13:09:24.913Z,15.32
2023-02-13T13:12:22.924Z,14.15
2023-02-13T13:15:15.865Z,16.27
2023-02-13T13:21:30.921Z,13.60
2023-02-13T13:24:20.893Z,15.60
2023-02-13T13:27:03.293Z,14.77
2023-02-13T13:29:54.871Z,13.93
2023-02-13T13:32:35.918Z,14.18
2023-02-13T13:35:25.868Z,12.40
2023-02-13T13:38:27.935Z,14.38
2023-02-13T13:41:45.851Z,13.82
2023-02-13T13:44:47.953Z,13.75
2023-02-13T13:47:34.874Z,14.38
2023-02-13T13:50:43.630Z,14.02
2023-02-13T13:53:30.874Z,12.55
2023-02-13T13:56:11.985Z,13.52
2023-02-13T13:58:58.916Z,14.32
2023-02-13T14:01:39.001Z,15.30
2023-02-13T14:04:44.876Z,15.23
2023-02-13T14:07:30.941Z,14.65
2023-02-13T14:10:31.890Z,14.27
2023-02-13T14:13:19.866Z,13.65
2023-02-13T14:16:07.948Z,15.02
2023-02-13T14:18:54.088Z,13.93
2023-02-13T14:21:40.861Z,17.55
2023-02-13T14:24:20.926Z,14.23
2023-02-13T14:27:07.870Z,15.15
2023-02-13T14:29:54.985Z,16.38
2023-02-13T14:32:43.873Z,14.68
2023-02-13T14:35:31.940Z,13.85
2023-02-13T14:38:30.882Z,14.75
2023-02-13T14:43:59.892Z,14.70
2023-02-13T14:46:48.895Z,15.25
2023-02-13T14:49:39.895Z,14.15
2023-02-13T14:52:27.677Z,15.30
2023-02-13T14:55:23.889Z,13.45
2023-02-13T14:58:26.995Z,15.98
2023-02-13T15:01:28.941Z,15.07
2023-02-13T15:04:48.965Z,15.15
2023-02-13T15:07:41.856Z,17.77
2023-02-13T15:13:38.554Z,14.82
2023-02-13T15:16:20.912Z,17.08
2023-02-13T15:19:08.892Z,12.95
2023-02-13T15:21:56.975Z,15.30
2023-02-13T15:24:52.873Z,16.23
2023-02-13T15:27:36.969Z,14.23
2023-02-13T15:30:35.885Z,15.35
2023-02-13T15:33:36.004Z,14.98
2023-02-13T15:36:26.951Z,14.35
2023-02-13T15:39:10.873Z,13.63
2023-02-13T15:41:54.909Z,14.50
2023-02-13T15:44:47.888Z,15.18
2023-02-13T15:50:15.886Z,12.70
2023-02-13T15:53:03.918Z,13.52
2023-02-13T15:55:44.895Z,14.18
2023-02-13T15:58:30.371Z,14.98
2023-02-13T16:01:20.933Z,13.70
2023-02-13T16:04:07.041Z,14.80
2023-02-13T16:06:58.898Z,14.80
2023-02-13T16:09:39.635Z,15.35
2023-02-13T16:12:38.869Z,14.48
2023-02-13T16:15:21.390Z,14.73
2023-02-13T16:18:08.888Z,16.10
2023-02-13T16:20:54.973Z,15.73
2023-02-13T16:23:41.878Z,13.85
2023-02-13T16:26:22.492Z,15.10
2023-02-13T16:29:08.897Z,16.85
2023-02-13T16:31:50.916Z,15.30
2023-02-13T16:34:43.886Z,16.83
2023-02-13T16:40:41.941Z,14.27
2023-02-13T16:43:47.738Z,14.55
2023-02-13T16:46:54.895Z,14.30
2023-02-13T16:49:43.889Z,14.02
2023-02-13T16:52:34.916Z,13.68
2023-02-13T16:55:29.896Z,13.32
2023-02-13T16:58:11.951Z,16.45
2023-02-13T17:00:59.220Z,15.57
2023-02-13T17:03:39.941Z,13.48
2023-02-13T17:06:26.902Z,14.13
2023-02-13T17:09:06.953Z,16.58
2023-02-13T17:12:05.029Z,13.77
2023-02-13T17:14:45.931Z,13.93
2023-02-13T17:17:36.109Z,14.07
2023-02-13T17:20:19.686Z,16.73
2023-02-13T17:23:07.913Z,14.68
2023-02-13T17:25:49.729Z,14.02
2023-02-13T17:28:38.890Z,15.07
2023-02-13T17:31:25.984Z,15.98
2023-02-13T17:34:06.269Z,16.60
2023-02-13T17:36:52.896Z,15.68
2023-02-13T17:39:33.000Z,17.13
2023-02-13T17:42:31.894Z,15.27
2023-02-13T17:45:11.978Z,17.65
2023-02-13T17:47:58.886Z,16.50
2023-02-13T17:50:40.976Z,18.35
2023-02-13T17:53:30.966Z,19.55
2023-02-13T17:56:11.326Z,17.67
2023-02-13T17:58:57.916Z,16.35
2023-02-13T18:01:38.013Z,17.20
2023-02-13T18:04:25.924Z,16.83
2023-02-13T18:07:12.921Z,17.30
2023-02-13T18:09:59.902Z,17.52
2023-02-13T18:12:54.909Z,19.58
2023-02-13T18:15:40.047Z,18.20
2023-02-13T18:18:28.896Z,16.65
2023-02-13T18:21:15.944Z,17.30
2023-02-13T18:26:39.382Z,19.25
2023-02-13T18:29:25.904Z,17.48
2023-02-13T18:32:14.972Z,18.33
2023-02-13T18:34:54.957Z,16.92
2023-02-13T18:37:42.904Z,19.48
2023-02-13T18:40:22.986Z,17.25
2023-02-13T18:43:09.913Z,20.13
2023-02-13T18:45:50.116Z,19.13
2023-02-13T18:48:38.894Z,18.73
2023-02-13T18:51:19.126Z,19.33
2023-02-13T18:54:05.910Z,20.58
2023-02-13T18:56:45.990Z,18.83
2023-02-13T18:59:32.908Z,24.27
2023-02-13T19:04:59.906Z,20.05
2023-02-13T19:10:40.919Z,20.40
2023-02-13T19:13:27.888Z,23.45
2023-02-13T19:16:17.010Z,23.25
2023-02-13T19:19:07.896Z,21.63
2023-02-13T19:21:54.933Z,20.17
2023-02-13T19:24:41.978Z,22.67
2023-02-13T19:30:02.509Z,22.17
2023-02-13T19:32:48.909Z,21.63
2023-02-13T19:38:15.900Z,22.98
2023-02-13T19:41:02.908Z,22.70
2023-02-13T19:46:35.942Z,24.52
2023-02-13T19:49:20.718Z,23.92
2023-02-13T19:52:09.910Z,23.98
2023-02-13T19:54:57.159Z,21.92
2023-02-13T20:00:24.920Z,24.25
2023-02-13T20:03:11.956Z,24.50
2023-02-13T20:08:45.934Z,25.65
2023-02-13T20:14:17.921Z,27.92
2023-02-13T20:16:58.322Z,24.13
2023-02-13T20:19:44.892Z,24.95
2023-02-13T20:25:11.938Z,26.75
2023-02-13T20:30:39.006Z,28.02
2023-02-13T20:36:21.924Z,26.98
2023-02-13T20:39:04.949Z,25.17
2023-02-13T20:41:56.908Z,25.40
2023-02-13T20:44:43.898Z,27.20
2023-02-13T20:50:10.964Z,27.05
2023-02-13T20:52:57.938Z,27.42
2023-02-13T20:58:24.900Z,29.25
2023-02-13T21:04:00.934Z,26.10
2023-02-13T21:06:43.039Z,25.73
2023-02-13T21:09:29.902Z,27.83
2023-02-13T21:14:56.909Z,28.02
2023-02-13T21:17:43.902Z,27.67
2023-02-13T21:23:17.995Z,27.77
2023-02-13T21:28:45.903Z,28.77
2023-02-13T21:31:32.193Z,29.20
2023-02-13T21:34:19.910Z,28.52
2023-02-13T21:37:06.915Z,28.08
2023-02-13T21:42:33.974Z,30.90
2023-02-13T21:45:20.928Z,28.83
2023-02-13T21:50:48.902Z,28.77
2023-02-13T21:56:24.237Z,30.23
2023-02-13T21:59:04.934Z,32.50
2023-02-13T22:04:45.934Z,29.75
2023-02-13T22:07:52.953Z,29.42
2023-02-13T22:10:32.936Z,29.52
2023-02-13T22:13:20.233Z,31.17
2023-02-13T22:18:57.946Z,32.15
2023-02-13T22:24:33.937Z,34.03
2023-02-13T22:27:13.989Z,33.47
2023-02-13T22:30:00.982Z,31.88
2023-02-13T22:32:41.061Z,30.35
2023-02-13T22:35:27.919Z,32.33
2023-02-13T22:38:08.058Z,34.88
2023-02-13T22:40:54.924Z,32.88
2023-02-13T22:43:34.974Z,31.70
2023-02-13T22:46:28.025Z,32.33
2023-02-13T22:49:14.933Z,33.30
2023-02-13T22:52:01.921Z,33.47
2023-02-13T22:54:41.996Z,34.65
2023-02-13T22:57:28.934Z,34.38
2023-02-13T23:00:09.980Z,32.38
2023-02-13T23:02:57.912Z,33.00
2023-02-13T23:05:37.961Z,34.15
2023-02-13T23:08:24.909Z,30.13
2023-02-13T23:11:23.706Z,33.50
2023-02-13T23:14:10.922Z,31.80
2023-02-13T23:17:09.431Z,42.92
2023-02-13T23:19:55.918Z,32.58
2023-02-13T23:22:35.995Z,32.90
2023-02-13T23:25:23.933Z,35.85
2023-02-13T23:28:03.960Z,35.35
2023-02-13T23:30:50.986Z,32.30
2023-02-13T23:33:30.954Z,35.25
2023-02-13T23:36:17.930Z,35.70
2023-02-13T23:41:44.893Z,34.80
2023-02-13T23:44:25.026Z,34.10
2023-02-13T23:47:11.918Z,33.40
2023-02-13T23:49:52.285Z,34.88
2023-02-13T23:52:38.910Z,34.58
2023-02-13T23:55:25.937Z,37.80
